Time;durP1;ratioP1;P1;durP2;ratioP2;P2;SDS_P1;SDS_P2;PMS_P1;PMS_P2;Temp;Humidity;BMP_temperature;BMP_pressure;BME280_temperature;BME280_humidity;BME280_pressure;Samples;Min_cycle;Max_cycle;Signal;HPM_P1;HPM_P2
2023/02/07 00:01:09;;;;;;;1.20;0.60;;;1.20;90.90;;;;;;6217441;23;20088;-75
2023/02/07 00:03:34;;;;;;;1.42;0.68;;;1.10;90.90;;;;;;6167951;23;20000;-75
2023/02/07 00:06:11;;;;;;;1.05;0.68;;;1.20;90.90;;;;;;6167924;23;20324;-75
2023/02/07 00:08:38;;;;;;;1.30;0.68;;;1.20;90.90;;;;;;6192326;23;20046;-75
2023/02/07 00:11:09;;;;;;;1.50;0.68;;;1.30;90.90;;;;;;6192480;23;20016;-76
2023/02/07 00:13:36;;;;;;;0.50;0.38;;;1.30;90.80;;;;;;6168068;23;20004;-75
2023/02/07 00:16:03;;;;;;;1.05;0.50;;;1.30;90.80;;;;;;6215722;23;20376;-75
2023/02/07 00:18:28;;;;;;;0.40;0.40;;;1.30;90.80;;;;;;6192920;23;20038;-75
2023/02/07 00:21:05;;;;;;;1.83;0.80;;;1.30;90.80;;;;;;6186709;23;20023;-75
2023/02/07 00:23:31;;;;;;;2.10;0.80;;;1.30;90.80;;;;;;6217506;23;20008;-75
2023/02/07 00:25:57;;;;;;;0.63;0.50;;;1.20;90.80;;;;;;6192352;23;20012;-75
2023/02/07 00:28:23;;;;;;;0.40;0.40;;;1.20;90.80;;;;;;6192077;23;20490;-75
2023/02/07 00:30:49;;;;;;;1.35;0.85;;;1.20;90.90;;;;;;6217010;23;20046;-75
2023/02/07 00:33:15;;;;;;;0.85;0.60;;;1.10;90.90;;;;;;6217253;23;20008;-76
2023/02/07 00:35:41;;;;;;;0.77;0.52;;;1.10;90.90;;;;;;6164618;23;20012;-75
2023/02/07 00:38:07;;;;;;;0.50;0.40;;;1.10;91.00;;;;;;6243839;23;20008;-75
2023/02/07 00:40:33;;;;;;;0.40;0.32;;;1.10;91.00;;;;;;6191598;23;20012;-76
2023/02/07 00:42:58;;;;;;;0.52;0.40;;;1.10;91.00;;;;;;6167319;23;20009;-76
2023/02/07 00:45:24;;;;;;;1.35;0.55;;;1.00;91.00;;;;;;6191801;23;20007;-76
2023/02/07 00:47:49;;;;;;;0.55;0.50;;;1.10;91.00;;;;;;6166879;23;20071;-76
2023/02/07 00:50:15;;;;;;;0.77;0.45;;;1.00;91.00;;;;;;6243502;23;20014;-75
2023/02/07 00:52:41;;;;;;;0.98;0.60;;;1.00;91.00;;;;;;6217103;23;20016;-75
2023/02/07 00:55:07;;;;;;;1.38;0.63;;;1.00;91.00;;;;;;6191760;23;20015;-74
2023/02/07 00:57:32;;;;;;;0.90;0.70;;;1.00;91.10;;;;;;6190382;23;20043;-75
2023/02/07 00:59:58;;;;;;;2.00;0.75;;;1.00;91.00;;;;;;6243591;23;20012;-73
2023/02/07 01:02:24;;;;;;;0.68;0.63;;;1.10;91.10;;;;;;6243734;23;19996;-75
2023/02/07 01:04:49;;;;;;;1.73;0.60;;;1.00;91.10;;;;;;6216905;23;20001;-75
2023/02/07 01:07:15;;;;;;;2.88;0.85;;;1.00;91.10;;;;;;6244548;23;20000;-73
2023/02/07 01:09:41;;;;;;;0.65;0.57;;;1.10;91.00;;;;;;6218012;23;20004;-73
2023/02/07 01:12:07;;;;;;;0.77;0.57;;;1.10;91.00;;;;;;6218201;23;20004;-73
2023/02/07 01:14:32;;;;;;;1.10;0.70;;;1.00;91.00;;;;;;6217736;23;20332;-73
2023/02/07 01:16:58;;;;;;;1.90;0.80;;;1.00;91.00;;;;;;6244562;23;20004;-73
2023/02/07 01:19:24;;;;;;;0.98;0.63;;;0.90;91.00;;;;;;6244387;23;20103;-73
2023/02/07 01:21:50;;;;;;;1.70;0.77;;;1.00;91.10;;;;;;6244003;23;20432;-73
2023/02/07 01:24:15;;;;;;;0.60;0.50;;;0.90;91.10;;;;;;6217554;23;20007;-73
2023/02/07 01:26:41;;;;;;;1.20;0.80;;;1.00;91.20;;;;;;6218184;23;20489;-73
2023/02/07 01:29:09;;;;;;;1.08;0.70;;;0.90;91.40;;;;;;6245555;23;20007;-73
2023/02/07 01:31:35;;;;;;;0.95;0.70;;;1.00;91.10;;;;;;6245884;23;19996;-73
2023/02/07 01:34:06;;;;;;;1.25;0.65;;;0.90;91.10;;;;;;6246498;23;20007;-74
2023/02/07 01:36:31;;;;;;;0.90;0.57;;;0.90;91.10;;;;;;6219862;23;20000;-73
2023/02/07 01:42:15;;;;;;;2.30;0.80;;;0.80;91.10;;;;;;6215604;23;20035;-74
2023/02/07 01:45:04;;;;;;;0.68;0.55;;;0.80;91.10;;;;;;6218017;23;20058;-74
2023/02/07 01:47:32;;;;;;;0.95;0.60;;;0.70;91.20;;;;;;6197908;23;20008;-74
2023/02/07 01:49:58;;;;;;;1.38;0.52;;;0.70;91.10;;;;;;6244923;23;20007;-74
2023/02/07 01:52:30;;;;;;;1.35;0.75;;;0.80;91.20;;;;;;6218254;23;20514;-75
2023/02/07 01:55:01;;;;;;;0.68;0.43;;;0.70;91.10;;;;;;6193514;23;20000;-74
2023/02/07 01:57:27;;;;;;;1.17;0.60;;;0.70;91.20;;;;;;6217878;23;20087;-74
2023/02/07 01:59:56;;;;;;;1.58;0.80;;;0.60;91.20;;;;;;6244330;23;20112;-75
2023/02/07 02:02:24;;;;;;;0.65;0.60;;;0.60;91.20;;;;;;6245185;23;20004;-74
2023/02/07 02:04:52;;;;;;;1.00;0.60;;;0.60;91.20;;;;;;6217438;23;20036;-75
2023/02/07 02:07:18;;;;;;;1.95;0.90;;;0.60;91.20;;;;;;6218321;23;20035;-73
2023/02/07 02:09:44;;;;;;;1.25;0.60;;;0.60;91.20;;;;;;6169500;23;20517;-73
2023/02/07 02:12:33;;;;;;;1.58;0.70;;;0.60;91.20;;;;;;6245852;23;20043;-73
2023/02/07 02:15:14;;;;;;;1.15;0.75;;;0.60;91.20;;;;;;6221376;23;20325;-74
2023/02/07 02:17:58;;;;;;;0.70;0.60;;;0.60;91.20;;;;;;6245317;23;20021;-74
2023/02/07 02:20:48;;;;;;;0.80;0.60;;;0.50;91.20;;;;;;6244421;23;20040;-74
2023/02/07 02:23:31;;;;;;;1.05;0.70;;;0.60;91.20;;;;;;6244806;23;20018;-74
2023/02/07 02:26:35;;;;;;;1.70;0.85;;;0.50;91.20;;;;;;6244651;23;20004;-74
2023/02/07 02:29:25;;;;;;;1.27;0.60;;;0.50;91.20;;;;;;6226446;23;20035;-74
2023/02/07 02:32:25;;;;;;;0.80;0.50;;;0.40;91.20;;;;;;6217462;23;20016;-74
2023/02/07 02:35:15;;;;;;;0.95;0.52;;;0.40;91.20;;;;;;6219476;23;20028;-74
2023/02/07 02:37:58;;;;;;;1.60;0.70;;;0.40;91.20;;;;;;6217079;23;20045;-74
2023/02/07 02:40:37;;;;;;;0.90;0.57;;;0.40;91.20;;;;;;6244242;23;20036;-74
2023/02/07 02:43:12;;;;;;;1.02;0.60;;;0.30;91.20;;;;;;6217350;23;20008;-74
2023/02/07 02:45:43;;;;;;;1.40;0.73;;;0.30;91.20;;;;;;6244068;23;20015;-74
2023/02/07 02:48:10;;;;;;;1.52;1.00;;;0.40;91.30;;;;;;6217307;23;20015;-74
2023/02/07 02:50:37;;;;;;;1.70;0.75;;;0.30;91.20;;;;;;6215175;23;20019;-74
2023/02/07 02:53:03;;;;;;;1.77;0.90;;;0.30;91.30;;;;;;6214320;23;20460;-74
2023/02/07 02:55:57;;;;;;;1.67;0.85;;;0.30;91.20;;;;;;6244371;23;20016;-74
2023/02/07 02:58:39;;;;;;;1.23;0.73;;;0.30;91.30;;;;;;6244260;23;20036;-74
2023/02/07 03:01:23;;;;;;;0.82;0.50;;;0.30;91.30;;;;;;6244809;23;20012;-74
2023/02/07 03:04:14;;;;;;;2.88;1.00;;;0.30;91.30;;;;;;6244332;23;20309;-74
2023/02/07 03:07:17;;;;;;;1.10;0.70;;;0.30;91.30;;;;;;6201160;23;20004;-74
2023/02/07 03:10:07;;;;;;;1.80;0.75;;;0.30;91.30;;;;;;6217429;23;20004;-74
2023/02/07 03:12:59;;;;;;;1.55;0.77;;;0.20;91.30;;;;;;6192219;23;20016;-74
2023/02/07 03:15:39;;;;;;;1.45;0.80;;;0.20;91.20;;;;;;6221765;23;20008;-73
2023/02/07 03:18:19;;;;;;;2.22;0.95;;;0.10;91.30;;;;;;6244012;23;20015;-74
2023/02/07 03:20:52;;;;;;;1.75;1.10;;;0.10;91.30;;;;;;6194923;23;20195;-74
2023/02/07 03:23:19;;;;;;;1.30;0.63;;;0.10;91.30;;;;;;6244776;23;20412;-74
2023/02/07 03:25:48;;;;;;;1.02;0.68;;;0.10;91.30;;;;;;6244041;23;20004;-74
2023/02/07 03:28:17;;;;;;;1.15;0.55;;;0.10;91.30;;;;;;6244138;23;20004;-74
2023/02/07 03:30:47;;;;;;;1.33;0.90;;;0.20;91.30;;;;;;6244148;23;20087;-74
2023/02/07 03:33:14;;;;;;;1.75;0.70;;;0.10;91.30;;;;;;6217641;23;20058;-74
2023/02/07 03:35:50;;;;;;;1.40;0.70;;;0.20;91.30;;;;;;6244355;23;20008;-74
2023/02/07 03:38:16;;;;;;;1.67;0.90;;;0.10;91.30;;;;;;6244292;23;20087;-74
2023/02/07 03:40:45;;;;;;;1.38;0.77;;;0.10;91.30;;;;;;6243817;23;20133;-74
2023/02/07 03:43:24;;;;;;;0.85;0.68;;;0.10;91.30;;;;;;6244198;23;20073;-74
2023/02/07 03:45:49;;;;;;;1.63;0.80;;;0.10;91.30;;;;;;6217033;23;20011;-74
2023/02/07 03:48:15;;;;;;;1.38;0.95;;;0.00;91.30;;;;;;6216878;23;20008;-74
2023/02/07 03:50:41;;;;;;;1.65;0.77;;;0.00;91.30;;;;;;6214502;23;20131;-74
2023/02/07 03:53:07;;;;;;;1.40;0.77;;;-0.10;91.30;;;;;;6243919;23;20015;-74
2023/02/07 03:55:33;;;;;;;1.35;0.80;;;-0.10;91.30;;;;;;6216972;23;20089;-74
2023/02/07 03:57:58;;;;;;;2.38;0.90;;;-0.10;91.40;;;;;;6217431;23;20436;-74
2023/02/07 04:00:24;;;;;;;1.77;0.70;;;0.00;91.40;;;;;;6244149;23;20062;-74
2023/02/07 04:02:50;;;;;;;1.85;1.05;;;0.00;91.40;;;;;;6217160;23;20012;-74
2023/02/07 04:05:15;;;;;;;1.90;1.08;;;-0.10;91.40;;;;;;6243694;23;20050;-74
2023/02/07 04:07:41;;;;;;;1.95;1.08;;;-0.10;91.40;;;;;;6217820;23;20004;-74
2023/02/07 04:10:09;;;;;;;2.25;0.80;;;-0.10;91.40;;;;;;6243793;23;20019;-74
2023/02/07 04:12:35;;;;;;;0.90;0.75;;;0.00;91.40;;;;;;6243930;23;20016;-74
2023/02/07 04:15:02;;;;;;;1.75;0.90;;;-0.10;91.40;;;;;;6215398;23;20017;-74
2023/02/07 04:17:28;;;;;;;3.65;0.98;;;-0.10;91.40;;;;;;6217673;23;20565;-75
2023/02/07 04:19:54;;;;;;;1.80;1.05;;;-0.20;91.40;;;;;;6244166;23;20035;-74
2023/02/07 04:22:19;;;;;;;2.10;0.98;;;-0.20;91.40;;;;;;6244232;23;20325;-74
2023/02/07 04:24:45;;;;;;;1.27;0.90;;;-0.30;91.40;;;;;;6244164;23;20014;-74
2023/02/07 04:27:11;;;;;;;1.83;0.95;;;-0.20;91.40;;;;;;6244112;23;20486;-74
2023/02/07 04:29:37;;;;;;;2.20;1.23;;;-0.20;91.40;;;;;;6243678;23;20016;-75
2023/02/07 04:32:02;;;;;;;1.48;0.70;;;-0.20;91.40;;;;;;6244232;23;20099;-74
2023/02/07 04:34:28;;;;;;;1.40;0.80;;;-0.30;91.40;;;;;;6213785;23;20020;-74
2023/02/07 04:36:54;;;;;;;2.10;0.80;;;-0.30;91.40;;;;;;6243417;23;20020;-74
2023/02/07 04:39:19;;;;;;;1.05;0.73;;;-0.30;91.40;;;;;;6191382;23;20012;-74
2023/02/07 04:41:45;;;;;;;2.65;0.88;;;-0.30;91.40;;;;;;6244001;23;20035;-74
2023/02/07 04:44:11;;;;;;;2.83;1.20;;;-0.30;91.40;;;;;;6243253;23;20004;-74
2023/02/07 04:46:36;;;;;;;1.52;0.82;;;-0.30;91.50;;;;;;6243314;23;20498;-74
2023/02/07 04:49:03;;;;;;;1.98;0.90;;;-0.40;91.50;;;;;;6243551;23;20459;-74
2023/02/07 04:51:29;;;;;;;1.50;0.82;;;-0.40;91.50;;;;;;6243644;23;20003;-74
2023/02/07 04:53:55;;;;;;;1.50;0.70;;;-0.40;91.50;;;;;;6216389;23;20436;-74
2023/02/07 04:56:21;;;;;;;1.58;0.70;;;-0.50;91.50;;;;;;6243331;23;19996;-75
2023/02/07 04:58:47;;;;;;;1.00;0.70;;;-0.40;91.50;;;;;;6214854;23;20405;-74
2023/02/07 05:01:13;;;;;;;1.50;0.88;;;-0.40;91.50;;;;;;6166916;23;20019;-74
2023/02/07 05:03:39;;;;;;;2.67;1.10;;;-0.50;91.50;;;;;;6193178;23;20037;-74
2023/02/07 05:06:05;;;;;;;1.35;0.77;;;-0.40;91.50;;;;;;6190907;23;20001;-74
2023/02/07 05:08:31;;;;;;;1.52;0.68;;;-0.50;91.50;;;;;;6193930;23;20430;-74
2023/02/07 05:10:57;;;;;;;1.60;0.77;;;-0.50;91.50;;;;;;6245622;23;20087;-74
2023/02/07 05:13:23;;;;;;;2.25;1.13;;;-0.50;91.50;;;;;;6245522;23;20012;-74
2023/02/07 05:15:49;;;;;;;2.28;0.75;;;-0.50;91.50;;;;;;6218133;23;20016;-74
2023/02/07 05:18:15;;;;;;;2.28;0.85;;;-0.60;91.50;;;;;;6192634;23;20436;-74
2023/02/07 05:20:41;;;;;;;1.27;0.88;;;-0.60;91.50;;;;;;6244808;23;20432;-74
2023/02/07 05:23:06;;;;;;;1.25;0.75;;;-0.60;91.50;;;;;;6193085;23;20040;-74
2023/02/07 05:25:32;;;;;;;2.00;0.90;;;-0.60;91.50;;;;;;6244570;23;20008;-74
2023/02/07 05:27:58;;;;;;;2.33;1.10;;;-0.60;91.50;;;;;;6244815;23;20008;-74
2023/02/07 05:30:24;;;;;;;2.33;0.82;;;-0.60;91.50;;;;;;6244841;23;20012;-74
2023/02/07 05:33:05;;;;;;;1.90;1.00;;;-0.60;91.50;;;;;;6244856;23;20015;-74
2023/02/07 05:35:33;;;;;;;1.65;0.90;;;-0.60;91.50;;;;;;6245557;23;20016;-74
2023/02/07 05:37:59;;;;;;;1.83;0.80;;;-0.60;91.50;;;;;;6217788;23;20016;-74
2023/02/07 05:40:26;;;;;;;1.58;0.80;;;-0.60;91.50;;;;;;6244699;23;20012;-74
2023/02/07 05:42:52;;;;;;;1.58;0.80;;;-0.70;91.50;;;;;;6244896;23;20024;-74
2023/02/07 05:45:18;;;;;;;1.25;0.70;;;-0.60;91.50;;;;;;6245492;23;20118;-74
2023/02/07 05:47:44;;;;;;;2.03;1.00;;;-0.60;91.50;;;;;;6244726;23;20023;-74
2023/02/07 05:50:10;;;;;;;1.92;0.95;;;-0.50;91.60;;;;;;6245184;23;20086;-74
2023/02/07 05:52:35;;;;;;;2.28;0.90;;;-0.50;91.50;;;;;;6218849;23;20012;-74
2023/02/07 05:55:01;;;;;;;2.83;1.40;;;-0.50;91.50;;;;;;6244546;23;20016;-74
2023/02/07 05:57:27;;;;;;;2.38;0.90;;;-0.50;91.40;;;;;;6218116;23;20111;-74
2023/02/07 05:59:52;;;;;;;3.17;1.30;;;-0.50;91.40;;;;;;6190283;23;20012;-74
2023/02/07 06:02:18;;;;;;;2.95;1.02;;;-0.40;91.40;;;;;;6218457;23;20005;-75
2023/02/07 06:04:43;;;;;;;2.13;1.10;;;-0.40;91.40;;;;;;6245178;23;20432;-75
2023/02/07 06:07:09;;;;;;;2.30;0.93;;;-0.40;91.30;;;;;;6245121;23;20433;-74
2023/02/07 06:09:35;;;;;;;1.85;0.93;;;-0.30;91.40;;;;;;6218127;23;20015;-74
2023/02/07 06:12:00;;;;;;;2.65;0.95;;;-0.40;91.30;;;;;;6193064;23;20470;-74
2023/02/07 06:14:26;;;;;;;3.03;1.25;;;-0.40;91.30;;;;;;6218066;23;20004;-74
2023/02/07 06:16:52;;;;;;;2.42;0.90;;;-0.40;91.30;;;;;;6214937;23;20019;-75
2023/02/07 06:19:17;;;;;;;4.28;1.63;;;-0.40;91.30;;;;;;6192709;23;20030;-74
2023/02/07 06:21:43;;;;;;;2.60;1.13;;;-0.40;91.30;;;;;;6218812;23;20090;-75
2023/02/07 06:24:09;;;;;;;2.90;1.20;;;-0.40;91.30;;;;;;6245014;23;20004;-77
2023/02/07 06:26:34;;;;;;;2.92;1.42;;;-0.40;91.30;;;;;;6217510;23;20012;-74
2023/02/07 06:29:00;;;;;;;2.05;1.08;;;-0.40;91.30;;;;;;6216994;23;20321;-75
2023/02/07 06:31:26;;;;;;;1.90;1.15;;;-0.30;91.30;;;;;;6193693;23;20004;-74
2023/02/07 06:33:51;;;;;;;2.63;0.85;;;-0.40;91.30;;;;;;6218457;23;20383;-75
2023/02/07 06:36:17;;;;;;;2.55;1.00;;;-0.50;91.30;;;;;;6218640;23;20054;-75
2023/02/07 06:38:43;;;;;;;3.42;1.10;;;-0.50;91.30;;;;;;6218851;23;20103;-75
2023/02/07 06:41:10;;;;;;;2.72;1.20;;;-0.40;91.40;;;;;;6219102;23;20336;-74
2023/02/07 06:43:37;;;;;;;1.80;1.10;;;-0.40;91.40;;;;;;6193364;23;20024;-75
2023/02/07 06:46:03;;;;;;;2.95;1.17;;;-0.40;91.40;;;;;;6218908;23;20016;-74
2023/02/07 06:48:28;;;;;;;2.83;1.17;;;-0.40;91.40;;;;;;6169059;23;20040;-75
2023/02/07 06:50:54;;;;;;;4.10;1.58;;;-0.40;91.40;;;;;;6193442;23;20432;-74
2023/02/07 06:53:19;;;;;;;2.25;0.90;;;-0.30;91.40;;;;;;6218258;23;20091;-75
2023/02/07 06:55:45;;;;;;;1.92;0.93;;;-0.40;91.40;;;;;;6218434;23;20335;-75
2023/02/07 06:58:11;;;;;;;2.83;1.23;;;-0.40;91.40;;;;;;6244999;23;20008;-75
2023/02/07 07:00:37;;;;;;;3.83;1.10;;;-0.50;91.40;;;;;;6245598;23;20336;-75
2023/02/07 07:03:03;;;;;;;2.10;0.90;;;-0.50;91.40;;;;;;6218180;23;20008;-74
2023/02/07 07:05:31;;;;;;;3.42;1.27;;;-0.50;91.50;;;;;;6215567;23;20009;-75
2023/02/07 07:07:57;;;;;;;1.92;0.90;;;-0.50;91.50;;;;;;6214953;23;20008;-75
2023/02/07 07:10:22;;;;;;;1.83;0.80;;;-0.50;91.50;;;;;;6217483;23;20052;-75
2023/02/07 07:12:48;;;;;;;2.30;1.05;;;-0.50;91.50;;;;;;6245313;23;20011;-74
2023/02/07 07:15:14;;;;;;;2.10;1.00;;;-0.50;91.50;;;;;;6193454;23;20008;-75
2023/02/07 07:17:40;;;;;;;2.40;0.98;;;-0.50;91.50;;;;;;6218583;23;20086;-75
2023/02/07 07:20:07;;;;;;;1.85;1.05;;;-0.50;91.50;;;;;;6247968;23;20090;-75
2023/02/07 07:22:33;;;;;;;2.60;1.05;;;-0.50;91.50;;;;;;6217323;23;20011;-75
2023/02/07 07:24:59;;;;;;;2.15;0.98;;;-0.50;91.50;;;;;;6192443;23;20004;-75
2023/02/07 07:27:25;;;;;;;1.88;1.02;;;-0.50;91.50;;;;;;6217306;23;20066;-75
2023/02/07 07:29:51;;;;;;;2.05;0.90;;;-0.50;91.50;;;;;;6217420;23;20000;-75
2023/02/07 07:32:16;;;;;;;2.28;1.20;;;-0.40;91.50;;;;;;6245093;23;20008;-75
2023/02/07 07:34:42;;;;;;;2.15;1.25;;;-0.40;91.50;;;;;;6217197;23;20344;-75
2023/02/07 07:37:08;;;;;;;2.42;1.10;;;-0.40;91.50;;;;;;6193281;23;20012;-74
2023/02/07 07:39:33;;;;;;;1.95;0.90;;;-0.40;91.50;;;;;;6244216;23;20012;-74
2023/02/07 07:41:59;;;;;;;2.00;1.10;;;-0.40;91.50;;;;;;6218298;23;20039;-74
2023/02/07 07:44:25;;;;;;;2.08;1.00;;;-0.30;91.50;;;;;;6217974;23;20031;-74
2023/02/07 07:46:51;;;;;;;1.85;0.95;;;-0.30;91.50;;;;;;6244308;23;20059;-74
2023/02/07 07:49:17;;;;;;;1.38;0.73;;;-0.30;91.50;;;;;;6244421;23;20079;-74
2023/02/07 07:51:42;;;;;;;2.22;1.05;;;-0.30;91.50;;;;;;6244508;23;20043;-74
2023/02/07 07:54:08;;;;;;;2.72;1.10;;;-0.30;91.50;;;;;;6244765;23;20011;-75
2023/02/07 07:56:34;;;;;;;1.77;0.90;;;-0.30;91.50;;;;;;6243973;23;20008;-75
2023/02/07 07:59:00;;;;;;;2.08;1.00;;;-0.30;91.50;;;;;;6244163;23;20004;-75
2023/02/07 08:01:26;;;;;;;2.65;0.70;;;-0.20;91.50;;;;;;6167457;23;20015;-74
2023/02/07 08:03:51;;;;;;;1.70;0.90;;;-0.20;91.50;;;;;;6215285;23;20017;-75
2023/02/07 08:06:17;;;;;;;2.20;0.88;;;-0.20;91.40;;;;;;6192640;23;20012;-75
2023/02/07 08:08:43;;;;;;;1.50;0.90;;;-0.10;91.40;;;;;;6218050;23;20020;-75
2023/02/07 08:11:09;;;;;;;2.17;1.05;;;-0.10;91.40;;;;;;6168240;23;20012;-74
2023/02/07 08:13:35;;;;;;;2.30;1.02;;;-0.10;91.40;;;;;;6244261;23;20095;-74
2023/02/07 08:16:03;;;;;;;1.80;0.82;;;-0.20;91.40;;;;;;6243969;23;20383;-74
2023/02/07 08:18:29;;;;;;;1.80;0.90;;;-0.20;91.40;;;;;;6217106;23;20012;-75
2023/02/07 08:20:55;;;;;;;1.73;0.80;;;-0.20;91.40;;;;;;6215210;23;20341;-74
2023/02/07 08:23:21;;;;;;;2.50;1.05;;;-0.20;91.40;;;;;;6244804;23;20003;-74
2023/02/07 08:25:48;;;;;;;2.17;1.13;;;-0.10;91.40;;;;;;6217387;23;20502;-74
2023/02/07 08:28:14;;;;;;;2.55;0.98;;;-0.20;91.40;;;;;;6243914;23;20082;-74
2023/02/07 08:30:40;;;;;;;1.52;1.00;;;-0.20;91.40;;;;;;6217102;23;20020;-74
2023/02/07 08:33:06;;;;;;;1.75;0.80;;;-0.20;91.40;;;;;;6214106;23;20012;-74
2023/02/07 08:35:32;;;;;;;1.67;0.88;;;-0.10;91.50;;;;;;6191966;23;20020;-74
2023/02/07 08:37:57;;;;;;;2.03;1.10;;;-0.20;91.50;;;;;;6244922;23;20035;-74
2023/02/07 08:40:24;;;;;;;2.40;1.10;;;-0.10;91.50;;;;;;6193281;23;20078;-74
2023/02/07 08:42:50;;;;;;;2.85;1.40;;;-0.10;91.50;;;;;;6245001;23;20008;-75
2023/02/07 08:45:16;;;;;;;2.10;1.02;;;0.00;91.40;;;;;;6217271;23;20015;-74
2023/02/07 08:47:43;;;;;;;3.15;1.20;;;0.00;91.40;;;;;;6244931;23;20004;-75
2023/02/07 08:50:10;;;;;;;2.03;0.90;;;0.00;91.40;;;;;;6245711;23;20008;-75
2023/02/07 08:52:35;;;;;;;2.33;1.05;;;0.10;91.40;;;;;;6193080;23;20015;-74
2023/02/07 08:55:08;;;;;;;2.38;1.23;;;0.10;91.30;;;;;;6244973;23;20050;-75
2023/02/07 08:57:34;;;;;;;2.13;1.10;;;0.10;91.30;;;;;;6192735;23;20019;-75
2023/02/07 08:59:59;;;;;;;2.45;1.15;;;0.20;91.30;;;;;;6245107;23;20012;-74
2023/02/07 09:02:25;;;;;;;2.65;1.13;;;0.20;91.30;;;;;;6190807;23;20009;-75
2023/02/07 09:04:51;;;;;;;2.00;1.25;;;0.30;91.30;;;;;;6245626;23;20329;-75
2023/02/07 09:07:18;;;;;;;2.10;1.05;;;0.30;91.20;;;;;;6193028;23;20004;-75
2023/02/07 09:09:44;;;;;;;3.75;1.40;;;0.40;91.20;;;;;;6193600;23;20015;-75
2023/02/07 09:12:10;;;;;;;2.75;1.30;;;0.30;91.20;;;;;;6245381;23;20000;-75
2023/02/07 09:14:37;;;;;;;3.45;1.30;;;0.40;91.20;;;;;;6218691;23;20023;-75
2023/02/07 09:17:03;;;;;;;2.53;1.30;;;0.40;91.20;;;;;;6244798;23;20016;-74
2023/02/07 09:19:29;;;;;;;4.03;1.30;;;0.40;91.20;;;;;;6193227;23;20008;-75
2023/02/07 09:21:55;;;;;;;2.83;1.40;;;0.50;91.20;;;;;;6244816;23;20004;-74
2023/02/07 09:24:21;;;;;;;3.55;1.38;;;0.40;91.20;;;;;;6191983;23;20023;-75
2023/02/07 09:26:47;;;;;;;2.58;1.40;;;0.50;91.20;;;;;;6218535;23;20008;-74
2023/02/07 09:29:13;;;;;;;2.47;1.13;;;0.50;91.20;;;;;;6244934;23;20011;-75
2023/02/07 09:31:40;;;;;;;3.05;1.40;;;0.50;91.20;;;;;;6193130;23;20018;-75
2023/02/07 09:34:06;;;;;;;3.95;1.83;;;0.60;91.20;;;;;;6245337;23;20011;-75
2023/02/07 09:36:32;;;;;;;5.35;2.13;;;0.60;91.10;;;;;;6245541;23;20033;-74
2023/02/07 09:38:59;;;;;;;3.83;1.40;;;0.60;91.10;;;;;;6244980;23;20386;-75
2023/02/07 09:41:35;;;;;;;4.72;2.00;;;0.60;91.10;;;;;;6192836;23;20013;-74
2023/02/07 09:44:14;;;;;;;4.22;1.67;;;0.70;91.10;;;;;;6219769;23;20332;-75
2023/02/07 09:46:47;;;;;;;3.33;1.65;;;0.80;91.10;;;;;;6218693;23;20012;-75
2023/02/07 09:49:42;;;;;;;3.25;1.65;;;0.80;91.10;;;;;;6217803;23;20062;-75
2023/02/07 09:52:15;;;;;;;3.03;1.45;;;0.90;91.10;;;;;;6171684;23;20012;-75
2023/02/07 09:54:44;;;;;;;3.15;1.25;;;1.00;91.10;;;;;;6193969;23;20432;-75
2023/02/07 09:57:17;;;;;;;4.82;1.67;;;1.00;91.00;;;;;;6193727;23;20016;-75
2023/02/07 10:00:08;;;;;;;3.67;1.48;;;1.10;91.00;;;;;;6218028;23;20012;-75
2023/02/07 10:02:43;;;;;;;4.30;1.80;;;1.30;90.90;;;;;;6218034;23;20016;-75
2023/02/07 10:05:19;;;;;;;2.75;1.45;;;1.20;90.80;;;;;;6244986;23;20231;-75
2023/02/07 10:07:46;;;;;;;4.05;1.65;;;1.20;90.80;;;;;;6244640;23;20005;-76
2023/02/07 10:10:15;;;;;;;3.58;1.45;;;1.10;90.80;;;;;;6218215;23;20014;-75
2023/02/07 10:13:04;;;;;;;3.40;1.77;;;1.10;90.80;;;;;;6217077;23;20020;-76
2023/02/07 10:15:57;;;;;;;3.30;1.13;;;1.10;90.90;;;;;;6244582;23;20066;-75
2023/02/07 10:18:41;;;;;;;3.72;1.40;;;1.10;90.90;;;;;;6218182;23;20099;-75
2023/02/07 10:21:28;;;;;;;3.78;1.42;;;1.10;90.90;;;;;;6244749;23;20432;-75
2023/02/07 10:24:18;;;;;;;2.47;1.40;;;1.10;90.90;;;;;;6244545;23;20012;-75
2023/02/07 10:26:51;;;;;;;3.05;1.50;;;1.10;90.90;;;;;;6244502;23;20031;-75
2023/02/07 10:29:28;;;;;;;2.50;1.15;;;1.20;91.00;;;;;;6244626;23;20031;-74
2023/02/07 10:31:57;;;;;;;4.00;1.45;;;1.10;90.90;;;;;;6216012;23;20008;-75
2023/02/07 10:34:29;;;;;;;3.45;1.40;;;1.30;91.00;;;;;;6244697;23;20008;-75
2023/02/07 10:36:56;;;;;;;4.68;1.50;;;1.30;90.90;;;;;;6245073;23;20007;-75
2023/02/07 10:39:32;;;;;;;1.77;1.10;;;1.30;90.90;;;;;;6218380;23;20028;-74
2023/02/07 10:41:58;;;;;;;1.92;1.15;;;1.40;90.90;;;;;;6219889;23;20008;-74
2023/02/07 10:44:24;;;;;;;2.67;1.13;;;1.40;90.90;;;;;;6244429;23;20030;-74
2023/02/07 10:47:04;;;;;;;3.63;1.25;;;1.50;90.80;;;;;;6217897;23;20090;-74
2023/02/07 10:49:32;;;;;;;2.42;1.30;;;1.50;90.80;;;;;;6220496;23;20012;-74
2023/02/07 10:52:02;;;;;;;3.10;1.15;;;1.60;90.80;;;;;;6218533;23;20416;-74
2023/02/07 10:54:28;;;;;;;2.10;1.13;;;1.60;90.70;;;;;;6219289;23;20012;-74
2023/02/07 10:56:58;;;;;;;2.13;1.20;;;1.70;90.70;;;;;;6217989;23;20486;-75
2023/02/07 10:59:44;;;;;;;2.05;1.00;;;1.80;90.60;;;;;;6192706;23;20076;-74
2023/02/07 11:02:47;;;;;;;1.20;0.90;;;1.90;90.60;;;;;;6219068;23;20008;-74
2023/02/07 11:05:34;;;;;;;1.65;0.90;;;2.00;90.60;;;;;;6245144;23;20004;-74
2023/02/07 11:08:06;;;;;;;1.75;1.02;;;2.00;90.50;;;;;;6218131;23;20012;-74
2023/02/07 11:10:35;;;;;;;1.48;0.90;;;2.00;90.50;;;;;;6193236;23;20030;-74
2023/02/07 11:13:03;;;;;;;1.48;0.88;;;2.10;90.50;;;;;;6193109;23;20486;-74
2023/02/07 11:15:37;;;;;;;1.85;1.02;;;2.20;90.40;;;;;;6244513;23;20018;-74
2023/02/07 11:18:03;;;;;;;1.45;1.02;;;2.20;90.40;;;;;;6219380;23;20016;-74
2023/02/07 11:20:37;;;;;;;1.83;0.90;;;2.30;90.30;;;;;;6216027;23;20017;-74
2023/02/07 11:23:10;;;;;;;1.75;0.90;;;2.30;90.30;;;;;;6219124;23;20012;-74
2023/02/07 11:25:41;;;;;;;1.73;1.08;;;2.40;90.30;;;;;;6217652;23;20000;-74
2023/02/07 11:28:18;;;;;;;1.65;1.05;;;2.50;90.30;;;;;;6218192;23;20008;-74
2023/02/07 11:30:44;;;;;;;0.98;0.68;;;2.40;90.20;;;;;;6191788;23;20337;-74
2023/02/07 11:33:18;;;;;;;1.85;0.90;;;2.50;90.20;;;;;;6167902;23;20019;-74
2023/02/07 11:36:22;;;;;;;1.95;1.13;;;2.50;90.10;;;;;;6244322;23;20036;-74
2023/02/07 11:38:53;;;;;;;1.27;0.80;;;2.60;90.10;;;;;;6217355;23;20019;-74
2023/02/07 11:41:23;;;;;;;1.52;0.85;;;2.60;90.10;;;;;;6244072;23;20012;-74
2023/02/07 11:44:02;;;;;;;2.30;1.00;;;2.70;90.10;;;;;;6217830;23;20011;-74
2023/02/07 11:46:42;;;;;;;1.60;0.90;;;2.80;90.10;;;;;;6244309;23;20001;-74
2023/02/07 11:49:38;;;;;;;1.35;0.85;;;2.70;90.00;;;;;;6217407;23;20003;-74
2023/02/07 11:52:04;;;;;;;1.30;0.77;;;2.80;90.00;;;;;;6217734;23;20016;-74
2023/02/07 11:54:31;;;;;;;1.23;0.90;;;2.80;90.00;;;;;;6244310;23;20094;-74
2023/02/07 11:57:03;;;;;;;1.48;0.88;;;2.90;89.90;;;;;;6218366;23;20019;-74
2023/02/07 11:59:32;;;;;;;1.83;1.05;;;3.10;89.80;;;;;;6218448;23;20012;-74
2023/02/07 12:02:05;;;;;;;1.92;1.05;;;3.10;89.60;;;;;;6235704;23;20008;-74
2023/02/07 12:04:36;;;;;;;1.75;1.00;;;3.20;89.50;;;;;;6218088;23;20012;-74
2023/02/07 12:07:08;;;;;;;1.63;0.77;;;3.20;89.40;;;;;;6244841;23;20019;-73
2023/02/07 12:09:44;;;;;;;1.30;0.90;;;3.40;89.20;;;;;;6217267;23;20702;-74
2023/02/07 12:12:20;;;;;;;1.10;0.80;;;3.50;89.00;;;;;;6216423;23;20310;-74
2023/02/07 12:14:54;;;;;;;2.45;1.02;;;3.60;88.90;;;;;;6168325;23;20016;-75
2023/02/07 12:17:28;;;;;;;1.50;0.90;;;3.80;88.80;;;;;;6215678;23;20009;-75
2023/02/07 12:20:04;;;;;;;1.38;1.02;;;3.70;88.60;;;;;;6191981;23;20510;-75
2023/02/07 12:22:39;;;;;;;2.47;1.23;;;3.80;88.50;;;;;;6211682;23;20336;-75
2023/02/07 12:25:25;;;;;;;1.85;1.10;;;3.90;88.30;;;;;;6218898;23;20012;-74
2023/02/07 12:27:58;;;;;;;2.80;1.40;;;3.90;88.10;;;;;;6243688;23;20000;-75
2023/02/07 12:30:38;;;;;;;1.60;0.95;;;4.10;88.10;;;;;;6243832;23;20066;-75
2023/02/07 12:33:26;;;;;;;1.30;0.90;;;4.20;87.90;;;;;;6217642;23;20019;-75
2023/02/07 12:36:12;;;;;;;1.02;0.82;;;4.40;87.80;;;;;;6215680;23;20013;-75
2023/02/07 12:39:07;;;;;;;1.75;1.00;;;4.40;87.60;;;;;;6217534;23;20465;-75
2023/02/07 12:41:47;;;;;;;1.55;0.85;;;4.50;87.50;;;;;;6243935;23;20015;-75
2023/02/07 12:44:49;;;;;;;1.67;0.90;;;4.70;87.40;;;;;;6216524;23;20012;-75
2023/02/07 12:47:20;;;;;;;;;;;4.60;87.10;;;;;;6244350;23;20004;-75
2023/02/07 12:50:18;;;;;;;0.75;0.68;;;4.70;87.20;;;;;;6217167;23;20357;-75
2023/02/07 12:53:08;;;;;;;1.80;1.00;;;4.80;87.00;;;;;;6198856;23;20036;-75
2023/02/07 12:55:57;;;;;;;1.38;1.08;;;4.90;86.80;;;;;;6216839;23;20008;-75
2023/02/07 12:58:59;;;;;;;2.45;1.30;;;5.00;86.70;;;;;;6243570;23;20027;-75
2023/02/07 13:01:41;;;;;;;1.98;0.90;;;5.00;86.50;;;;;;6199147;23;20023;-75
2023/02/07 13:04:41;;;;;;;1.52;1.05;;;5.10;86.50;;;;;;6243707;23;20361;-75
2023/02/07 13:07:21;;;;;;;1.92;0.95;;;5.30;86.30;;;;;;6221746;23;20343;-75
2023/02/07 13:09:56;;;;;;;1.77;1.00;;;5.30;86.20;;;;;;6219285;23;20036;-75
2023/02/07 13:12:52;;;;;;;2.75;1.30;;;5.40;86.10;;;;;;6193114;23;20340;-75
2023/02/07 13:15:44;;;;;;;1.17;0.90;;;5.40;86.10;;;;;;6244072;23;20016;-76